sensor_id;sensor_type;location;lat;lon;timestamp;temperature;humidity
70456;DHT22;57916;51.996;5.180;2022-11-15T00:01:12;10.70;74.20
70456;DHT22;57916;51.996;5.180;2022-11-15T00:03:59;10.70;74.20
70456;DHT22;57916;51.996;5.180;2022-11-15T00:06:45;10.70;74.40
70456;DHT22;57916;51.996;5.180;2022-11-15T00:09:30;10.70;74.50
70456;DHT22;57916;51.996;5.180;2022-11-15T00:12:15;10.70;74.70
70456;DHT22;57916;51.996;5.180;2022-11-15T00:15:01;10.60;74.90
70456;DHT22;57916;51.996;5.180;2022-11-15T00:17:50;10.60;75.10
70456;DHT22;57916;51.996;5.180;2022-11-15T00:20:35;10.60;75.40
70456;DHT22;57916;51.996;5.180;2022-11-15T00:23:21;10.60;75.50
70456;DHT22;57916;51.996;5.180;2022-11-15T00:26:08;10.60;75.60
70456;DHT22;57916;51.996;5.180;2022-11-15T00:28:55;10.60;75.70
70456;DHT22;57916;51.996;5.180;2022-11-15T00:31:41;10.70;75.90
70456;DHT22;57916;51.996;5.180;2022-11-15T00:34:26;10.70;75.90
70456;DHT22;57916;51.996;5.180;2022-11-15T00:37:12;10.60;76.00
70456;DHT22;57916;51.996;5.180;2022-11-15T00:39:57;10.60;76.20
70456;DHT22;57916;51.996;5.180;2022-11-15T00:42:43;10.60;76.30
70456;DHT22;57916;51.996;5.180;2022-11-15T00:45:28;10.60;76.40
70456;DHT22;57916;51.996;5.180;2022-11-15T00:48:13;10.60;76.50
70456;DHT22;57916;51.996;5.180;2022-11-15T00:50:59;10.70;76.60
70456;DHT22;57916;51.996;5.180;2022-11-15T00:53:44;10.70;76.60
70456;DHT22;57916;51.996;5.180;2022-11-15T00:56:29;10.80;76.60
70456;DHT22;57916;51.996;5.180;2022-11-15T00:59:15;10.80;76.70
70456;DHT22;57916;51.996;5.180;2022-11-15T01:02:00;10.80;76.70
70456;DHT22;57916;51.996;5.180;2022-11-15T01:04:46;10.90;76.50
70456;DHT22;57916;51.996;5.180;2022-11-15T01:07:31;10.90;76.60
70456;DHT22;57916;51.996;5.180;2022-11-15T01:10:17;11.00;76.50
70456;DHT22;57916;51.996;5.180;2022-11-15T01:13:03;11.00;76.50
70456;DHT22;57916;51.996;5.180;2022-11-15T01:15:48;11.00;76.50
70456;DHT22;57916;51.996;5.180;2022-11-15T01:18:33;11.00;76.50
70456;DHT22;57916;51.996;5.180;2022-11-15T01:21:19;11.00;76.60
70456;DHT22;57916;51.996;5.180;2022-11-15T01:24:04;11.10;76.70
70456;DHT22;57916;51.996;5.180;2022-11-15T01:26:50;11.20;76.70
70456;DHT22;57916;51.996;5.180;2022-11-15T01:29:35;11.20;76.50
70456;DHT22;57916;51.996;5.180;2022-11-15T01:32:20;11.20;76.30
70456;DHT22;57916;51.996;5.180;2022-11-15T01:35:06;11.20;76.30
70456;DHT22;57916;51.996;5.180;2022-11-15T01:37:52;11.20;76.20
70456;DHT22;57916;51.996;5.180;2022-11-15T01:40:37;11.20;76.30
70456;DHT22;57916;51.996;5.180;2022-11-15T01:46:35;11.30;76.40
70456;DHT22;57916;51.996;5.180;2022-11-15T01:49:23;11.30;76.50
70456;DHT22;57916;51.996;5.180;2022-11-15T01:52:14;11.40;77.60
70456;DHT22;57916;51.996;5.180;2022-11-15T01:57:52;11.40;76.60
70456;DHT22;57916;51.996;5.180;2022-11-15T02:00:38;11.40;76.70
70456;DHT22;57916;51.996;5.180;2022-11-15T02:03:30;11.40;76.90
70456;DHT22;57916;51.996;5.180;2022-11-15T02:06:18;11.40;77.10
70456;DHT22;57916;51.996;5.180;2022-11-15T02:09:05;11.40;77.20
70456;DHT22;57916;51.996;5.180;2022-11-15T02:11:53;11.50;77.20
70456;DHT22;57916;51.996;5.180;2022-11-15T02:14:41;11.50;77.20
70456;DHT22;57916;51.996;5.180;2022-11-15T02:17:55;11.60;77.30
70456;DHT22;57916;51.996;5.180;2022-11-15T02:26:52;11.80;77.70
70456;DHT22;57916;51.996;5.180;2022-11-15T02:33:31;11.90;77.80
70456;DHT22;57916;51.996;5.180;2022-11-15T02:42:35;12.20;77.60
70456;DHT22;57916;51.996;5.180;2022-11-15T02:45:48;12.30;77.50
70456;DHT22;57916;51.996;5.180;2022-11-15T02:48:35;12.40;77.60
70456;DHT22;57916;51.996;5.180;2022-11-15T02:51:21;12.40;77.60
70456;DHT22;57916;51.996;5.180;2022-11-15T02:54:10;12.40;77.80
70456;DHT22;57916;51.996;5.180;2022-11-15T02:57:02;12.50;78.00
70456;DHT22;57916;51.996;5.180;2022-11-15T03:00:10;12.50;78.00
70456;DHT22;57916;51.996;5.180;2022-11-15T03:03:13;12.60;77.90
70456;DHT22;57916;51.996;5.180;2022-11-15T03:06:15;12.70;77.70
70456;DHT22;57916;51.996;5.180;2022-11-15T03:09:47;12.80;77.50
70456;DHT22;57916;51.996;5.180;2022-11-15T03:12:54;12.90;77.30
70456;DHT22;57916;51.996;5.180;2022-11-15T03:15:50;12.90;77.20
70456;DHT22;57916;51.996;5.180;2022-11-15T03:18:50;13.10;77.10
70456;DHT22;57916;51.996;5.180;2022-11-15T03:21:38;13.10;76.90
70456;DHT22;57916;51.996;5.180;2022-11-15T03:24:25;13.10;76.80
70456;DHT22;57916;51.996;5.180;2022-11-15T03:27:14;13.20;76.90
70456;DHT22;57916;51.996;5.180;2022-11-15T03:30:05;13.20;76.90
70456;DHT22;57916;51.996;5.180;2022-11-15T03:32:54;13.20;76.90
70456;DHT22;57916;51.996;5.180;2022-11-15T03:35:42;13.30;77.00
70456;DHT22;57916;51.996;5.180;2022-11-15T03:38:31;13.30;77.00
70456;DHT22;57916;51.996;5.180;2022-11-15T03:41:23;13.30;77.20
70456;DHT22;57916;51.996;5.180;2022-11-15T03:44:45;13.30;77.10
70456;DHT22;57916;51.996;5.180;2022-11-15T03:47:34;13.40;77.10
70456;DHT22;57916;51.996;5.180;2022-11-15T03:50:22;13.40;77.10
70456;DHT22;57916;51.996;5.180;2022-11-15T03:53:09;13.50;77.10
70456;DHT22;57916;51.996;5.180;2022-11-15T03:55:55;13.50;76.90
70456;DHT22;57916;51.996;5.180;2022-11-15T03:58:40;13.60;76.90
70456;DHT22;57916;51.996;5.180;2022-11-15T04:01:26;13.60;76.90
70456;DHT22;57916;51.996;5.180;2022-11-15T04:04:11;13.70;76.70
70456;DHT22;57916;51.996;5.180;2022-11-15T04:06:57;13.70;76.90
70456;DHT22;57916;51.996;5.180;2022-11-15T04:09:43;13.70;76.60
70456;DHT22;57916;51.996;5.180;2022-11-15T04:12:47;13.70;76.60
70456;DHT22;57916;51.996;5.180;2022-11-15T04:15:33;13.70;76.40
70456;DHT22;57916;51.996;5.180;2022-11-15T04:18:18;13.80;76.10
70456;DHT22;57916;51.996;5.180;2022-11-15T04:21:03;13.70;75.90
70456;DHT22;57916;51.996;5.180;2022-11-15T04:24:08;13.80;75.70
70456;DHT22;57916;51.996;5.180;2022-11-15T04:26:59;13.80;75.70
70456;DHT22;57916;51.996;5.180;2022-11-15T04:29:44;13.80;75.70
70456;DHT22;57916;51.996;5.180;2022-11-15T04:32:29;13.80;75.80
70456;DHT22;57916;51.996;5.180;2022-11-15T04:35:15;13.80;76.10
70456;DHT22;57916;51.996;5.180;2022-11-15T04:38:02;13.70;76.30
70456;DHT22;57916;51.996;5.180;2022-11-15T04:40:47;13.70;76.60
70456;DHT22;57916;51.996;5.180;2022-11-15T04:43:33;13.70;76.60
70456;DHT22;57916;51.996;5.180;2022-11-15T04:46:19;13.60;76.50
70456;DHT22;57916;51.996;5.180;2022-11-15T04:49:04;13.70;76.60
70456;DHT22;57916;51.996;5.180;2022-11-15T04:51:50;13.70;76.70
70456;DHT22;57916;51.996;5.180;2022-11-15T04:54:35;13.70;76.70
70456;DHT22;57916;51.996;5.180;2022-11-15T04:57:20;13.80;76.80
70456;DHT22;57916;51.996;5.180;2022-11-15T05:00:09;13.80;76.80
70456;DHT22;57916;51.996;5.180;2022-11-15T05:02:56;13.90;76.80
70456;DHT22;57916;51.996;5.180;2022-11-15T05:06:00;13.90;76.80
70456;DHT22;57916;51.996;5.180;2022-11-15T05:08:46;13.90;76.80
70456;DHT22;57916;51.996;5.180;2022-11-15T05:11:31;13.90;76.70
70456;DHT22;57916;51.996;5.180;2022-11-15T05:14:16;13.90;76.70
70456;DHT22;57916;51.996;5.180;2022-11-15T05:17:02;13.90;76.60
70456;DHT22;57916;51.996;5.180;2022-11-15T05:19:47;13.90;76.60
70456;DHT22;57916;51.996;5.180;2022-11-15T05:22:33;13.90;76.50
70456;DHT22;57916;51.996;5.180;2022-11-15T05:25:18;13.90;76.60
70456;DHT22;57916;51.996;5.180;2022-11-15T05:28:04;14.00;76.60
70456;DHT22;57916;51.996;5.180;2022-11-15T05:30:49;14.00;76.60
70456;DHT22;57916;51.996;5.180;2022-11-15T05:33:37;14.00;76.80
70456;DHT22;57916;51.996;5.180;2022-11-15T05:36:31;14.00;76.70
70456;DHT22;57916;51.996;5.180;2022-11-15T05:39:17;14.00;76.80
70456;DHT22;57916;51.996;5.180;2022-11-15T05:42:07;14.10;76.80
70456;DHT22;57916;51.996;5.180;2022-11-15T05:44:54;14.10;76.80
70456;DHT22;57916;51.996;5.180;2022-11-15T05:47:40;14.20;76.70
70456;DHT22;57916;51.996;5.180;2022-11-15T05:50:26;14.20;76.60
70456;DHT22;57916;51.996;5.180;2022-11-15T05:53:13;14.20;76.60
70456;DHT22;57916;51.996;5.180;2022-11-15T05:55:59;14.30;76.60
70456;DHT22;57916;51.996;5.180;2022-11-15T05:58:45;14.30;76.40
70456;DHT22;57916;51.996;5.180;2022-11-15T06:01:30;14.30;76.50
70456;DHT22;57916;51.996;5.180;2022-11-15T06:04:15;14.30;77.50
70456;DHT22;57916;51.996;5.180;2022-11-15T06:07:01;14.30;76.60
70456;DHT22;57916;51.996;5.180;2022-11-15T06:09:47;14.30;76.50
70456;DHT22;57916;51.996;5.180;2022-11-15T06:12:32;14.30;76.50
70456;DHT22;57916;51.996;5.180;2022-11-15T06:15:18;14.30;76.50
70456;DHT22;57916;51.996;5.180;2022-11-15T06:18:03;14.30;76.30
70456;DHT22;57916;51.996;5.180;2022-11-15T06:20:48;14.30;76.30
70456;DHT22;57916;51.996;5.180;2022-11-15T06:23:35;14.30;76.30
70456;DHT22;57916;51.996;5.180;2022-11-15T06:26:20;14.30;76.30
70456;DHT22;57916;51.996;5.180;2022-11-15T06:29:06;14.30;76.30
70456;DHT22;57916;51.996;5.180;2022-11-15T06:31:51;14.40;76.20
70456;DHT22;57916;51.996;5.180;2022-11-15T06:34:37;14.40;75.90
70456;DHT22;57916;51.996;5.180;2022-11-15T06:37:23;14.50;75.80
70456;DHT22;57916;51.996;5.180;2022-11-15T06:40:09;14.40;75.80
70456;DHT22;57916;51.996;5.180;2022-11-15T06:42:58;14.40;75.70
70456;DHT22;57916;51.996;5.180;2022-11-15T06:45:44;14.50;75.80
70456;DHT22;57916;51.996;5.180;2022-11-15T06:48:30;14.50;75.70
70456;DHT22;57916;51.996;5.180;2022-11-15T06:51:15;14.50;75.60
70456;DHT22;57916;51.996;5.180;2022-11-15T06:54:01;14.50;75.70
70456;DHT22;57916;51.996;5.180;2022-11-15T06:56:47;14.50;75.60
70456;DHT22;57916;51.996;5.180;2022-11-15T06:59:32;14.50;75.60
70456;DHT22;57916;51.996;5.180;2022-11-15T07:02:24;14.40;75.60
70456;DHT22;57916;51.996;5.180;2022-11-15T07:05:10;14.40;75.70
70456;DHT22;57916;51.996;5.180;2022-11-15T07:07:57;14.40;75.70
70456;DHT22;57916;51.996;5.180;2022-11-15T07:10:42;14.40;75.70
70456;DHT22;57916;51.996;5.180;2022-11-15T07:13:29;14.40;75.80
70456;DHT22;57916;51.996;5.180;2022-11-15T07:16:19;14.40;75.80
70456;DHT22;57916;51.996;5.180;2022-11-15T07:19:08;14.40;75.80
70456;DHT22;57916;51.996;5.180;2022-11-15T07:21:54;14.40;75.80
70456;DHT22;57916;51.996;5.180;2022-11-15T07:24:39;14.40;75.70
70456;DHT22;57916;51.996;5.180;2022-11-15T07:27:24;14.40;75.70
70456;DHT22;57916;51.996;5.180;2022-11-15T07:30:11;14.40;75.50
70456;DHT22;57916;51.996;5.180;2022-11-15T07:33:00;14.40;75.30
70456;DHT22;57916;51.996;5.180;2022-11-15T07:35:46;14.50;75.30
70456;DHT22;57916;51.996;5.180;2022-11-15T07:38:34;14.50;75.10
70456;DHT22;57916;51.996;5.180;2022-11-15T07:41:27;14.50;74.80
70456;DHT22;57916;51.996;5.180;2022-11-15T07:44:12;14.50;74.70
70456;DHT22;57916;51.996;5.180;2022-11-15T07:46:57;14.50;74.90
70456;DHT22;57916;51.996;5.180;2022-11-15T07:49:43;14.40;74.90
70456;DHT22;57916;51.996;5.180;2022-11-15T07:52:28;14.40;74.90
70456;DHT22;57916;51.996;5.180;2022-11-15T07:55:14;14.40;74.80
70456;DHT22;57916;51.996;5.180;2022-11-15T07:58:07;14.40;74.90
70456;DHT22;57916;51.996;5.180;2022-11-15T08:00:53;14.50;75.00
70456;DHT22;57916;51.996;5.180;2022-11-15T08:03:39;14.50;74.90
70456;DHT22;57916;51.996;5.180;2022-11-15T08:06:24;14.50;74.90
70456;DHT22;57916;51.996;5.180;2022-11-15T08:09:10;14.50;75.00
70456;DHT22;57916;51.996;5.180;2022-11-15T08:11:55;14.50;75.00
70456;DHT22;57916;51.996;5.180;2022-11-15T08:14:41;14.50;75.20
70456;DHT22;57916;51.996;5.180;2022-11-15T08:17:26;14.40;75.10
70456;DHT22;57916;51.996;5.180;2022-11-15T08:20:11;14.50;75.30
70456;DHT22;57916;51.996;5.180;2022-11-15T08:22:58;14.50;75.20
70456;DHT22;57916;51.996;5.180;2022-11-15T08:25:44;14.50;75.10
70456;DHT22;57916;51.996;5.180;2022-11-15T08:28:30;14.40;75.20
70456;DHT22;57916;51.996;5.180;2022-11-15T08:31:17;14.40;75.30
70456;DHT22;57916;51.996;5.180;2022-11-15T08:34:05;14.40;75.30
70456;DHT22;57916;51.996;5.180;2022-11-15T08:36:51;14.50;75.40
70456;DHT22;57916;51.996;5.180;2022-11-15T08:39:36;14.50;75.40
70456;DHT22;57916;51.996;5.180;2022-11-15T08:42:23;14.50;75.10
70456;DHT22;57916;51.996;5.180;2022-11-15T08:45:08;14.50;75.20
70456;DHT22;57916;51.996;5.180;2022-11-15T08:47:54;14.50;75.10
70456;DHT22;57916;51.996;5.180;2022-11-15T08:50:40;14.60;75.00
70456;DHT22;57916;51.996;5.180;2022-11-15T08:53:25;14.50;74.50
70456;DHT22;57916;51.996;5.180;2022-11-15T08:56:12;14.60;74.40
70456;DHT22;57916;51.996;5.180;2022-11-15T08:58:58;14.50;74.70
70456;DHT22;57916;51.996;5.180;2022-11-15T09:01:43;14.50;75.40
70456;DHT22;57916;51.996;5.180;2022-11-15T09:04:29;14.60;75.20
70456;DHT22;57916;51.996;5.180;2022-11-15T09:07:15;14.80;75.20
70456;DHT22;57916;51.996;5.180;2022-11-15T09:10:00;14.90;74.30
70456;DHT22;57916;51.996;5.180;2022-11-15T09:12:46;15.00;74.20
70456;DHT22;57916;51.996;5.180;2022-11-15T09:15:33;15.10;73.60
70456;DHT22;57916;51.996;5.180;2022-11-15T09:18:19;15.20;72.80
70456;DHT22;57916;51.996;5.180;2022-11-15T09:21:08;15.20;72.70
70456;DHT22;57916;51.996;5.180;2022-11-15T09:23:53;15.30;72.70
70456;DHT22;57916;51.996;5.180;2022-11-15T09:26:40;15.40;72.50
70456;DHT22;57916;51.996;5.180;2022-11-15T09:29:25;15.50;72.80
70456;DHT22;57916;51.996;5.180;2022-11-15T09:32:10;15.60;71.30
70456;DHT22;57916;51.996;5.180;2022-11-15T09:34:56;15.60;70.20
70456;DHT22;57916;51.996;5.180;2022-11-15T09:37:42;15.60;69.70
70456;DHT22;57916;51.996;5.180;2022-11-15T09:40:27;15.40;69.70
70456;DHT22;57916;51.996;5.180;2022-11-15T09:43:36;15.50;70.20
70456;DHT22;57916;51.996;5.180;2022-11-15T09:46:56;15.60;70.50
70456;DHT22;57916;51.996;5.180;2022-11-15T09:50:07;15.80;69.60
70456;DHT22;57916;51.996;5.180;2022-11-15T09:52:36;15.90;69.50
70456;DHT22;57916;51.996;5.180;2022-11-15T09:55:07;16.00;68.80
70456;DHT22;57916;51.996;5.180;2022-11-15T09:57:43;15.90;68.20
70456;DHT22;57916;51.996;5.180;2022-11-15T10:00:21;15.90;68.20
70456;DHT22;57916;51.996;5.180;2022-11-15T10:05:44;15.90;67.80
70456;DHT22;57916;51.996;5.180;2022-11-15T10:11:17;15.80;68.30
70456;DHT22;57916;51.996;5.180;2022-11-15T10:14:19;15.90;68.50
70456;DHT22;57916;51.996;5.180;2022-11-15T10:28:17;15.70;68.10
70456;DHT22;57916;51.996;5.180;2022-11-15T10:30:52;15.70;67.90
70456;DHT22;57916;51.996;5.180;2022-11-15T10:33:32;15.70;68.10
70456;DHT22;57916;51.996;5.180;2022-11-15T10:39:00;15.60;67.70
70456;DHT22;57916;51.996;5.180;2022-11-15T10:46:50;15.50;67.40
70456;DHT22;57916;51.996;5.180;2022-11-15T10:49:34;15.50;67.10
70456;DHT22;57916;51.996;5.180;2022-11-15T10:52:20;15.60;67.50
70456;DHT22;57916;51.996;5.180;2022-11-15T10:57:18;15.70;66.60
70456;DHT22;57916;51.996;5.180;2022-11-15T11:00:26;15.70;66.70
70456;DHT22;57916;51.996;5.180;2022-11-15T11:02:57;15.70;66.10
70456;DHT22;57916;51.996;5.180;2022-11-15T11:05:38;15.80;66.30
70456;DHT22;57916;51.996;5.180;2022-11-15T11:10:58;15.70;65.30
70456;DHT22;57916;51.996;5.180;2022-11-15T11:13:39;15.70;65.60
70456;DHT22;57916;51.996;5.180;2022-11-15T11:16:33;15.70;65.20
70456;DHT22;57916;51.996;5.180;2022-11-15T11:25:34;15.60;65.00
70456;DHT22;57916;51.996;5.180;2022-11-15T11:28:43;15.60;65.10
70456;DHT22;57916;51.996;5.180;2022-11-15T11:48:02;15.70;64.40
70456;DHT22;57916;51.996;5.180;2022-11-15T11:50:32;15.70;64.30
70456;DHT22;57916;51.996;5.180;2022-11-15T11:53:08;15.70;63.80
70456;DHT22;57916;51.996;5.180;2022-11-15T11:55:45;15.80;63.90
70456;DHT22;57916;51.996;5.180;2022-11-15T12:00:54;15.80;64.00
70456;DHT22;57916;51.996;5.180;2022-11-15T12:03:40;15.80;63.60
70456;DHT22;57916;51.996;5.180;2022-11-15T12:11:14;15.70;62.80
70456;DHT22;57916;51.996;5.180;2022-11-15T12:13:43;15.70;63.00
70456;DHT22;57916;51.996;5.180;2022-11-15T12:16:26;15.70;62.80
70456;DHT22;57916;51.996;5.180;2022-11-15T12:18:55;15.70;63.10
70456;DHT22;57916;51.996;5.180;2022-11-15T12:24:22;15.70;62.80
70456;DHT22;57916;51.996;5.180;2022-11-15T12:29:51;15.70;61.80
70456;DHT22;57916;51.996;5.180;2022-11-15T12:32:34;15.70;62.20
70456;DHT22;57916;51.996;5.180;2022-11-15T12:35:04;15.80;62.20
70456;DHT22;57916;51.996;5.180;2022-11-15T12:37:53;15.80;61.60
70456;DHT22;57916;51.996;5.180;2022-11-15T12:40:34;15.90;61.30
70456;DHT22;57916;51.996;5.180;2022-11-15T12:45:37;15.90;61.20
70456;DHT22;57916;51.996;5.180;2022-11-15T12:50:56;16.00;61.20
70456;DHT22;57916;51.996;5.180;2022-11-15T13:01:10;16.00;60.20
70456;DHT22;57916;51.996;5.180;2022-11-15T13:15:07;15.80;60.90
70456;DHT22;57916;51.996;5.180;2022-11-15T13:17:53;15.80;61.20
70456;DHT22;57916;51.996;5.180;2022-11-15T13:28:42;15.70;61.70
70456;DHT22;57916;51.996;5.180;2022-11-15T13:31:37;15.70;61.90
70456;DHT22;57916;51.996;5.180;2022-11-15T13:34:32;15.60;61.90
70456;DHT22;57916;51.996;5.180;2022-11-15T13:39:48;15.60;61.90
70456;DHT22;57916;51.996;5.180;2022-11-15T13:42:17;15.60;62.10
70456;DHT22;57916;51.996;5.180;2022-11-15T13:44:59;15.50;62.10
70456;DHT22;57916;51.996;5.180;2022-11-15T13:47:28;15.50;62.40
70456;DHT22;57916;51.996;5.180;2022-11-15T13:49:59;15.50;63.10
70456;DHT22;57916;51.996;5.180;2022-11-15T13:52:36;15.50;62.60
70456;DHT22;57916;51.996;5.180;2022-11-15T13:55:21;15.50;62.70
70456;DHT22;57916;51.996;5.180;2022-11-15T13:57:53;15.60;62.70
70456;DHT22;57916;51.996;5.180;2022-11-15T14:00:39;15.60;63.60
70456;DHT22;57916;51.996;5.180;2022-11-15T14:05:43;15.50;63.00
70456;DHT22;57916;51.996;5.180;2022-11-15T14:08:21;15.50;63.00
70456;DHT22;57916;51.996;5.180;2022-11-15T14:11:18;15.40;63.20
70456;DHT22;57916;51.996;5.180;2022-11-15T14:19:09;15.50;63.30
70456;DHT22;57916;51.996;5.180;2022-11-15T14:21:36;15.40;63.50
70456;DHT22;57916;51.996;5.180;2022-11-15T14:26:43;15.40;63.40
70456;DHT22;57916;51.996;5.180;2022-11-15T14:29:29;15.40;63.20
70456;DHT22;57916;51.996;5.180;2022-11-15T14:34:48;15.40;63.10
70456;DHT22;57916;51.996;5.180;2022-11-15T14:37:27;15.40;62.90
70456;DHT22;57916;51.996;5.180;2022-11-15T14:39:55;15.40;62.90
70456;DHT22;57916;51.996;5.180;2022-11-15T14:42:23;15.40;62.90
70456;DHT22;57916;51.996;5.180;2022-11-15T14:44:50;15.40;62.70
70456;DHT22;57916;51.996;5.180;2022-11-15T14:47:17;15.40;62.60
70456;DHT22;57916;51.996;5.180;2022-11-15T14:49:45;15.40;62.40
70456;DHT22;57916;51.996;5.180;2022-11-15T14:52:27;15.40;62.40
70456;DHT22;57916;51.996;5.180;2022-11-15T14:55:01;15.40;62.30
70456;DHT22;57916;51.996;5.180;2022-11-15T14:57:30;15.40;62.30
70456;DHT22;57916;51.996;5.180;2022-11-15T14:59:57;15.40;62.30
70456;DHT22;57916;51.996;5.180;2022-11-15T15:02:37;15.40;62.00
70456;DHT22;57916;51.996;5.180;2022-11-15T15:05:20;15.40;61.80
70456;DHT22;57916;51.996;5.180;2022-11-15T15:07:48;15.40;61.60
70456;DHT22;57916;51.996;5.180;2022-11-15T15:10:16;15.40;61.40
70456;DHT22;57916;51.996;5.180;2022-11-15T15:13:04;15.40;61.30
70456;DHT22;57916;51.996;5.180;2022-11-15T15:15:34;15.40;61.40
70456;DHT22;57916;51.996;5.180;2022-11-15T15:18:01;15.30;61.50
70456;DHT22;57916;51.996;5.180;2022-11-15T15:20:29;15.40;61.60
70456;DHT22;57916;51.996;5.180;2022-11-15T15:22:56;15.40;61.60
70456;DHT22;57916;51.996;5.180;2022-11-15T15:25:27;15.40;61.60
70456;DHT22;57916;51.996;5.180;2022-11-15T15:27:55;15.30;61.70
70456;DHT22;57916;51.996;5.180;2022-11-15T15:30:22;15.40;61.70
70456;DHT22;57916;51.996;5.180;2022-11-15T15:32:50;15.30;61.80
70456;DHT22;57916;51.996;5.180;2022-11-15T15:35:18;15.30;61.90
70456;DHT22;57916;51.996;5.180;2022-11-15T15:37:46;15.30;62.00
70456;DHT22;57916;51.996;5.180;2022-11-15T15:40:19;15.20;62.00
70456;DHT22;57916;51.996;5.180;2022-11-15T15:42:47;15.30;63.20
70456;DHT22;57916;51.996;5.180;2022-11-15T15:45:15;15.20;62.10
70456;DHT22;57916;51.996;5.180;2022-11-15T15:47:42;15.20;62.20
70456;DHT22;57916;51.996;5.180;2022-11-15T15:52:49;15.20;61.90
70456;DHT22;57916;51.996;5.180;2022-11-15T15:55:16;15.20;61.70
70456;DHT22;57916;51.996;5.180;2022-11-15T15:57:43;15.20;61.80
70456;DHT22;57916;51.996;5.180;2022-11-15T16:00:11;15.20;61.80
70456;DHT22;57916;51.996;5.180;2022-11-15T16:02:39;15.30;61.80
70456;DHT22;57916;51.996;5.180;2022-11-15T16:05:07;15.30;61.70
70456;DHT22;57916;51.996;5.180;2022-11-15T16:07:34;15.30;61.30
70456;DHT22;57916;51.996;5.180;2022-11-15T16:10:02;15.30;61.30
70456;DHT22;57916;51.996;5.180;2022-11-15T16:12:38;15.30;61.10
70456;DHT22;57916;51.996;5.180;2022-11-15T16:15:05;15.30;61.10
70456;DHT22;57916;51.996;5.180;2022-11-15T16:17:35;15.30;61.20
70456;DHT22;57916;51.996;5.180;2022-11-15T16:20:04;15.30;61.20
70456;DHT22;57916;51.996;5.180;2022-11-15T16:22:31;15.30;61.10
70456;DHT22;57916;51.996;5.180;2022-11-15T16:24:58;15.30;61.10
70456;DHT22;57916;51.996;5.180;2022-11-15T16:27:25;15.30;61.00
70456;DHT22;57916;51.996;5.180;2022-11-15T16:29:52;15.30;61.10
70456;DHT22;57916;51.996;5.180;2022-11-15T16:32:19;15.20;61.40
70456;DHT22;57916;51.996;5.180;2022-11-15T16:34:46;15.30;61.30
70456;DHT22;57916;51.996;5.180;2022-11-15T16:37:33;15.30;61.40
70456;DHT22;57916;51.996;5.180;2022-11-15T16:40:00;15.30;61.60
70456;DHT22;57916;51.996;5.180;2022-11-15T16:42:27;15.30;62.00
70456;DHT22;57916;51.996;5.180;2022-11-15T16:44:54;15.30;62.10
70456;DHT22;57916;51.996;5.180;2022-11-15T16:47:21;15.30;62.40
70456;DHT22;57916;51.996;5.180;2022-11-15T16:49:48;15.20;62.90
70456;DHT22;57916;51.996;5.180;2022-11-15T16:52:15;15.20;63.50
70456;DHT22;57916;51.996;5.180;2022-11-15T16:54:47;15.10;63.70
70456;DHT22;57916;51.996;5.180;2022-11-15T16:57:14;15.10;64.20
70456;DHT22;57916;51.996;5.180;2022-11-15T16:59:42;15.00;64.90
70456;DHT22;57916;51.996;5.180;2022-11-15T17:02:12;15.00;65.40
70456;DHT22;57916;51.996;5.180;2022-11-15T17:04:39;14.90;65.90
70456;DHT22;57916;51.996;5.180;2022-11-15T17:07:07;14.90;66.20
70456;DHT22;57916;51.996;5.180;2022-11-15T17:09:34;14.80;66.60
70456;DHT22;57916;51.996;5.180;2022-11-15T17:12:01;14.70;67.10
70456;DHT22;57916;51.996;5.180;2022-11-15T17:14:28;14.70;67.50
70456;DHT22;57916;51.996;5.180;2022-11-15T17:16:55;14.60;67.80
70456;DHT22;57916;51.996;5.180;2022-11-15T17:19:22;14.50;68.20
70456;DHT22;57916;51.996;5.180;2022-11-15T17:21:49;14.50;68.70
70456;DHT22;57916;51.996;5.180;2022-11-15T17:24:16;14.50;68.90
70456;DHT22;57916;51.996;5.180;2022-11-15T17:26:43;14.40;69.00
70456;DHT22;57916;51.996;5.180;2022-11-15T17:29:10;14.40;70.30
70456;DHT22;57916;51.996;5.180;2022-11-15T17:31:37;14.40;69.90
70456;DHT22;57916;51.996;5.180;2022-11-15T17:34:05;14.30;70.00
70456;DHT22;57916;51.996;5.180;2022-11-15T17:36:33;14.30;70.30
70456;DHT22;57916;51.996;5.180;2022-11-15T17:39:00;14.30;70.70
70456;DHT22;57916;51.996;5.180;2022-11-15T17:41:27;14.20;71.00
70456;DHT22;57916;51.996;5.180;2022-11-15T17:43:55;14.30;71.40
70456;DHT22;57916;51.996;5.180;2022-11-15T17:46:24;14.20;71.50
70456;DHT22;57916;51.996;5.180;2022-11-15T17:48:51;14.20;71.70
70456;DHT22;57916;51.996;5.180;2022-11-15T17:51:18;14.10;71.80
70456;DHT22;57916;51.996;5.180;2022-11-15T17:53:46;14.10;72.20
70456;DHT22;57916;51.996;5.180;2022-11-15T17:56:16;14.10;72.60
70456;DHT22;57916;51.996;5.180;2022-11-15T17:58:50;14.00;72.70
70456;DHT22;57916;51.996;5.180;2022-11-15T18:01:26;14.00;72.90
70456;DHT22;57916;51.996;5.180;2022-11-15T18:03:54;14.00;73.10
70456;DHT22;57916;51.996;5.180;2022-11-15T18:06:23;14.00;73.30
70456;DHT22;57916;51.996;5.180;2022-11-15T18:08:52;14.00;73.50
70456;DHT22;57916;51.996;5.180;2022-11-15T18:11:24;14.00;73.70
70456;DHT22;57916;51.996;5.180;2022-11-15T18:13:56;14.00;73.90
70456;DHT22;57916;51.996;5.180;2022-11-15T18:16:26;14.00;73.90
70456;DHT22;57916;51.996;5.180;2022-11-15T18:18:54;14.00;74.10
70456;DHT22;57916;51.996;5.180;2022-11-15T18:21:24;14.00;74.20
70456;DHT22;57916;51.996;5.180;2022-11-15T18:23:56;14.00;74.30
70456;DHT22;57916;51.996;5.180;2022-11-15T18:26:26;14.00;74.40
70456;DHT22;57916;51.996;5.180;2022-11-15T18:28:56;14.00;74.40
70456;DHT22;57916;51.996;5.180;2022-11-15T18:31:25;14.00;74.50
70456;DHT22;57916;51.996;5.180;2022-11-15T18:33:53;14.00;74.60
70456;DHT22;57916;51.996;5.180;2022-11-15T18:36:25;14.10;74.70
70456;DHT22;57916;51.996;5.180;2022-11-15T18:38:53;14.00;74.80
70456;DHT22;57916;51.996;5.180;2022-11-15T18:41:21;14.10;75.00
70456;DHT22;57916;51.996;5.180;2022-11-15T18:43:51;14.00;74.90
70456;DHT22;57916;51.996;5.180;2022-11-15T18:46:19;14.10;75.10
70456;DHT22;57916;51.996;5.180;2022-11-15T18:48:48;14.10;75.20
70456;DHT22;57916;51.996;5.180;2022-11-15T18:51:25;14.10;75.20
70456;DHT22;57916;51.996;5.180;2022-11-15T18:53:54;14.10;75.20
70456;DHT22;57916;51.996;5.180;2022-11-15T18:56:23;14.10;75.20
70456;DHT22;57916;51.996;5.180;2022-11-15T18:58:55;14.10;75.40
70456;DHT22;57916;51.996;5.180;2022-11-15T19:01:25;14.10;75.40
70456;DHT22;57916;51.996;5.180;2022-11-15T19:03:54;14.20;75.50
70456;DHT22;57916;51.996;5.180;2022-11-15T19:06:26;14.20;75.60
70456;DHT22;57916;51.996;5.180;2022-11-15T19:08:56;14.20;75.60
70456;DHT22;57916;51.996;5.180;2022-11-15T19:11:25;14.20;75.60
70456;DHT22;57916;51.996;5.180;2022-11-15T19:14:00;14.20;75.60
70456;DHT22;57916;51.996;5.180;2022-11-15T19:16:30;14.20;75.70